Weather at Akron Canton Regional Airport

Public forecast

Using degrees Fahrenheit for public forecast. Weather courtesy of forecast.io.

Current aviation weather report (METAR) for Akron Canton Regional Airport

2024/05/28 22:51 (retrieved 1 hour ago)

KCAK 282251Z 28011G17KT 10SM SCT047 BKN110 BKN220 19/11 A2992 RMK AO2 SLP130 T01890106

Aviation forecast (TAF) for Akron Canton Regional Airport

2024/05/28 20:00 Ammendment (retrieved 4 hours ago)

TAF AMD KCAK 281957Z 2820/2918 29012KT P6SM VCSH BKN050 FM282300 32008KT P6SM BKN080 FM291200 02007KT 6SM -SHRA BKN035 TEMPO 2914/2917 3SM -SHRA BKN025